Time;durP1;ratioP1;P1;durP2;ratioP2;P2;SDS_P1;SDS_P2;PMS_P1;PMS_P2;Temp;Humidity;BMP_temperature;BMP_pressure;BME280_temperature;BME280_humidity;BME280_pressure;Samples;Min_cycle;Max_cycle;Signal;HPM_P1;HPM_P2
2021/08/28 00:26:00;;;;;;;8.73;4.25;;;14.60;99.90;;;12.98;100.00;101455.56;2569996;30;138076;-38
2021/08/28 00:28:28;;;;;;;8.30;3.92;;;14.40;99.90;;;12.97;100.00;101453.88;2570211;30;138423;-39
2021/08/28 00:30:56;;;;;;;7.80;4.00;;;14.40;99.90;;;12.88;100.00;101434.09;2567844;30;136867;-38
2021/08/28 00:33:26;;;;;;;12.98;4.32;;;14.40;99.90;;;13.00;100.00;101453.44;2569360;30;138120;-39
2021/08/28 00:35:54;;;;;;;8.20;3.50;;;14.40;99.90;;;13.02;100.00;101452.19;2568925;30;136877;-40
2021/08/28 00:38:23;;;;;;;8.02;3.83;;;14.40;99.90;;;13.06;100.00;101456.19;2571126;30;138227;-40
2021/08/28 00:40:51;;;;;;;9.05;3.28;;;14.50;99.90;;;13.12;100.00;101448.97;2567816;30;136792;-39
2021/08/28 00:43:28;;;;;;;7.43;3.65;;;14.50;99.90;;;13.12;100.00;101451.72;2569303;30;139732;-38
2021/08/28 00:45:56;;;;;;;7.32;3.50;;;14.50;99.90;;;13.13;100.00;101449.84;2569250;30;137029;-39
2021/08/28 00:48:26;;;;;;;7.88;3.40;;;14.50;99.90;;;13.15;100.00;101454.06;2567275;30;139719;-39
2021/08/28 00:50:54;;;;;;;7.88;3.83;;;14.50;99.90;;;13.17;100.00;101451.09;2568043;30;136740;-39
2021/08/28 00:53:22;;;;;;;8.07;3.70;;;14.60;99.90;;;13.17;100.00;101451.94;2571340;30;137993;-39
2021/08/28 00:55:51;;;;;;;7.53;3.33;;;14.50;99.90;;;13.19;100.00;101454.44;2566877;30;138999;-39
2021/08/28 00:58:22;;;;;;;7.10;3.58;;;14.60;99.90;;;13.20;100.00;101458.88;2568584;30;139265;-39
2021/08/28 01:00:59;;;;;;;9.43;4.57;;;14.60;99.90;;;13.21;100.00;101457.81;2569377;30;136777;-39
2021/08/28 01:03:32;;;;;;;7.95;3.95;;;14.60;99.90;;;13.19;100.00;101458.06;2570833;30;137191;-39
2021/08/28 01:06:35;;;;;;;7.07;3.83;;;14.50;99.90;;;13.19;100.00;101465.41;2568047;30;138495;-39
2021/08/28 01:09:30;;;;;;;7.18;3.90;;;14.60;99.90;;;13.20;100.00;101473.44;2567762;30;139642;-39
2021/08/28 01:12:44;;;;;;;8.13;4.32;;;14.60;99.90;;;13.20;100.00;101467.09;2566865;30;137235;-41
2021/08/28 01:15:24;;;;;;;8.07;4.35;;;14.60;99.90;;;13.23;100.00;101466.66;2568672;30;139621;-39
2021/08/28 01:17:56;;;;;;;10.93;4.35;;;14.60;99.90;;;13.22;100.00;101459.50;2566965;30;139220;-39
2021/08/28 01:21:16;;;;;;;7.88;4.63;;;14.60;99.90;;;13.19;100.00;101469.00;2568330;30;138240;-39
2021/08/28 01:24:08;;;;;;;8.35;5.03;;;14.60;99.90;;;13.21;100.00;101479.72;2568349;30;137170;-39
2021/08/28 01:27:25;;;;;;;7.60;4.47;;;14.60;99.90;;;13.22;100.00;101473.19;2568487;30;139674;-39
2021/08/28 01:29:56;;;;;;;8.57;4.57;;;14.60;99.90;;;13.24;100.00;101468.34;2569298;30;137894;-39
2021/08/28 01:32:24;;;;;;;7.72;4.18;;;14.60;99.90;;;13.26;100.00;101465.41;2568510;30;138993;-40
2021/08/28 01:34:55;;;;;;;8.10;4.40;;;14.60;99.90;;;13.27;100.00;101459.72;2567163;30;138458;-39
2021/08/28 01:37:23;;;;;;;7.93;4.82;;;14.60;99.90;;;13.32;100.00;101465.38;2567464;30;138594;-39
2021/08/28 01:40:14;;;;;;;8.23;5.10;;;14.70;99.90;;;13.32;100.00;101462.66;2568155;30;137829;-39
2021/08/28 01:42:54;;;;;;;10.90;4.75;;;14.70;99.90;;;13.34;100.00;101463.28;2565818;30;140885;-40
2021/08/28 01:45:27;;;;;;;8.85;4.95;;;14.70;99.90;;;13.32;100.00;101468.13;2568295;30;138976;-38
2021/08/28 01:48:01;;;;;;;12.88;5.78;;;14.70;99.90;;;13.38;100.00;101469.16;2568757;30;139212;-39
2021/08/28 01:50:30;;;;;;;10.63;5.65;;;14.70;99.90;;;13.36;100.00;101463.03;2568297;30;137719;-39
2021/08/28 01:53:07;;;;;;;13.98;6.72;;;14.70;99.90;;;13.35;100.00;101467.69;2567356;30;139417;-41
2021/08/28 01:55:36;;;;;;;11.40;6.65;;;14.70;99.90;;;13.37;100.00;101462.84;2569725;30;137567;-39
2021/08/28 01:58:06;;;;;;;11.20;6.30;;;14.70;99.90;;;13.35;100.00;101464.97;2567609;30;137663;-39
2021/08/28 02:00:54;;;;;;;13.10;7.17;;;14.70;99.90;;;13.36;100.00;101466.63;2569978;30;137229;-40
2021/08/28 02:03:43;;;;;;;11.38;7.03;;;14.70;99.90;;;13.42;100.00;101464.94;2568944;30;137807;-39
2021/08/28 02:06:23;;;;;;;12.25;7.57;;;14.80;99.90;;;13.41;100.00;101463.25;2568385;30;137202;-39
2021/08/28 02:09:04;;;;;;;12.32;7.35;;;14.80;99.90;;;13.40;100.00;101460.72;2568209;30;138442;-39
2021/08/28 02:11:46;;;;;;;12.98;7.45;;;14.80;99.90;;;13.41;100.00;101462.41;2569318;30;138451;-39
2021/08/28 02:14:35;;;;;;;19.80;10.95;;;14.70;99.90;;;13.50;100.00;101466.59;2570228;30;137180;-39
2021/08/28 02:17:08;;;;;;;21.42;12.30;;;14.80;99.90;;;13.50;100.00;101466.59;2568156;30;139812;-39
2021/08/28 02:19:42;;;;;;;18.08;12.45;;;14.80;99.90;;;13.46;100.00;101465.38;2568900;30;138977;-39
2021/08/28 02:22:37;;;;;;;26.42;13.80;;;14.80;99.90;;;13.48;100.00;101464.09;2568933;30;136825;-39
2021/08/28 02:25:33;;;;;;;26.27;14.90;;;14.80;99.90;;;13.48;100.00;101464.09;2570096;30;136958;-39
2021/08/28 02:28:10;;;;;;;23.65;13.65;;;14.80;99.90;;;13.46;100.00;101468.09;2568611;30;139052;-39
2021/08/28 02:30:38;;;;;;;21.90;13.73;;;14.80;99.90;;;13.48;100.00;101468.72;2565882;30;140570;-40
2021/08/28 02:33:11;;;;;;;24.00;14.60;;;14.80;99.90;;;13.52;100.00;101459.00;2569164;30;137563;-39
2021/08/28 02:35:48;;;;;;;26.65;15.20;;;14.80;99.90;;;13.50;100.00;101466.59;2566936;30;139409;-38
2021/08/28 02:38:17;;;;;;;28.40;14.75;;;14.80;99.90;;;13.47;100.00;101459.69;2568851;30;140252;-40
2021/08/28 02:40:50;;;;;;;30.92;15.93;;;14.80;99.90;;;13.62;100.00;101461.28;2568136;30;139258;-39
2021/08/28 02:43:20;;;;;;;29.90;16.67;;;14.90;99.90;;;13.60;100.00;101453.31;2568017;30;138373;-38
2021/08/28 02:45:52;;;;;;;33.67;17.88;;;15.00;99.90;;;13.57;100.00;101461.97;2568401;30;139132;-39
2021/08/28 02:48:28;;;;;;;30.95;16.35;;;14.90;99.90;;;13.52;100.00;101462.59;2569492;30;137498;-39
2021/08/28 02:51:02;;;;;;;33.28;19.40;;;14.90;99.90;;;13.59;100.00;101462.59;2566494;30;140480;-39
2021/08/28 02:53:31;;;;;;;33.08;18.38;;;14.90;99.90;;;13.53;100.00;101463.47;2569511;30;138749;-39
2021/08/28 02:56:02;;;;;;;35.20;19.85;;;14.90;99.90;;;13.54;100.00;101473.38;2570265;30;139307;-39
2021/08/28 02:58:32;;;;;;;37.28;19.55;;;14.90;99.90;;;13.54;100.00;101467.88;2567765;30;139330;-40
2021/08/28 03:01:05;;;;;;;37.15;19.83;;;14.90;99.90;;;13.58;100.00;101463.66;2567879;30;137952;-38
2021/08/28 03:03:35;;;;;;;34.80;19.65;;;14.90;99.90;;;13.57;100.00;101461.09;2567042;30;140182;-39
2021/08/28 03:06:07;;;;;;;30.05;17.50;;;14.90;99.90;;;13.57;100.00;101456.47;2566039;30;137324;-39
2021/08/28 03:08:44;;;;;;;27.92;16.23;;;14.90;99.90;;;13.56;100.00;101459.44;2569492;30;139099;-39
2021/08/28 03:11:13;;;;;;;28.08;15.70;;;14.90;99.90;;;13.58;100.00;101460.06;2568983;30;137382;-39
2021/08/28 03:13:43;;;;;;;26.80;15.25;;;14.90;99.90;;;13.56;100.00;101460.28;2569253;30;139066;-39
2021/08/28 03:16:15;;;;;;;25.10;13.40;;;14.90;99.90;;;13.62;100.00;101459.41;2571157;30;139335;-39
2021/08/28 03:18:48;;;;;;;25.02;14.60;;;15.00;99.90;;;13.58;100.00;101460.06;2569982;30;138474;-39
2021/08/28 03:21:22;;;;;;;25.20;13.23;;;15.00;99.90;;;13.58;100.00;101463.66;2570565;30;138776;-39
2021/08/28 03:23:51;;;;;;;22.30;12.32;;;14.90;99.90;;;13.60;100.00;101458.78;2567561;30;137388;-39
2021/08/28 03:26:22;;;;;;;18.15;10.98;;;15.00;99.90;;;13.55;100.00;101452.25;2568587;30;140815;-39
2021/08/28 03:28:54;;;;;;;21.55;12.77;;;14.90;99.90;;;13.56;100.00;101446.56;2569214;30;139015;-38
2021/08/28 03:31:25;;;;;;;20.13;12.35;;;14.90;99.90;;;13.58;100.00;101449.94;2569379;30;138477;-39
2021/08/28 03:33:56;;;;;;;23.98;13.73;;;14.90;99.90;;;13.58;100.00;101436.22;2569629;30;139374;-39
2021/08/28 03:36:25;;;;;;;21.75;13.73;;;14.90;99.90;;;13.55;100.00;101430.34;2567822;30;140166;-41
2021/08/28 03:38:54;;;;;;;22.42;12.52;;;14.90;99.90;;;13.57;100.00;101436.44;2565310;30;139703;-39
2021/08/28 03:41:25;;;;;;;22.88;13.65;;;14.90;99.90;;;13.57;100.00;101439.19;2568307;30;138233;-39
2021/08/28 03:43:53;;;;;;;21.23;13.32;;;14.90;99.90;;;13.58;100.00;101438.97;2569548;30;139234;-39
2021/08/28 03:46:21;;;;;;;19.58;12.27;;;14.90;99.90;;;13.57;100.00;101437.28;2569169;30;138332;-38
2021/08/28 03:48:49;;;;;;;20.20;12.32;;;14.90;99.90;;;13.61;100.00;101445.91;2569997;30;138789;-39
2021/08/28 03:51:17;;;;;;;20.50;12.27;;;14.90;99.90;;;13.59;100.00;101439.81;2570214;30;138361;-39
2021/08/28 03:53:44;;;;;;;20.90;12.30;;;14.90;99.90;;;13.59;100.00;101435.16;2568877;30;139179;-39
2021/08/28 03:56:12;;;;;;;21.45;11.98;;;15.00;99.90;;;13.59;100.00;101437.91;2568855;30;138215;-39
2021/08/28 03:58:40;;;;;;;;;;;14.90;99.90;;;13.61;100.00;101433.06;2568541;30;137787;-39
2021/08/28 04:01:07;;;;;;;20.42;13.00;;;15.00;99.90;;;13.62;100.00;101433.88;2567297;30;138816;-39
2021/08/28 04:03:39;;;;;;;21.45;12.48;;;14.90;99.90;;;13.60;100.00;101427.78;2568734;30;138884;-39
2021/08/28 04:06:06;;;;;;;18.77;11.82;;;15.00;99.90;;;13.59;100.00;101426.94;2568114;30;140683;-39
2021/08/28 04:08:36;;;;;;;22.20;12.00;;;15.00;99.90;;;13.58;100.00;101430.75;2569558;30;137018;-38
2021/08/28 04:11:04;;;;;;;23.05;12.40;;;15.00;99.90;;;13.60;100.00;101430.50;2568667;30;138318;-39
2021/08/28 04:13:33;;;;;;;19.05;12.45;;;15.00;99.90;;;13.60;100.00;101431.38;2568331;30;136953;-39
2021/08/28 04:16:00;;;;;;;;;;;14.90;99.90;;;13.60;100.00;101427.78;2568089;30;137800;-39
2021/08/28 04:18:43;;;;;;;18.08;11.40;;;14.90;99.90;;;13.62;100.00;101432.00;2568234;30;138252;-39
2021/08/28 04:21:43;;;;;;;19.20;10.55;;;15.00;99.90;;;13.63;100.00;101424.59;2568708;30;137099;-39
2021/08/28 04:24:26;;;;;;;15.45;10.02;;;15.00;99.90;;;13.62;100.00;101425.66;2566890;30;138764;-38
2021/08/28 04:27:12;;;;;;;16.27;9.15;;;15.00;99.90;;;13.64;100.00;101416.16;2569169;30;137376;-39
2021/08/28 04:29:39;;;;;;;17.60;10.43;;;15.00;99.90;;;13.65;100.00;101414.25;2569466;30;138355;-39
2021/08/28 04:32:07;;;;;;;14.43;9.52;;;15.00;99.90;;;13.65;100.00;101415.09;2567900;30;140267;-38
2021/08/28 04:34:35;;;;;;;17.75;9.35;;;15.00;99.90;;;13.69;100.00;101409.19;2568043;30;138116;-38
2021/08/28 04:37:03;;;;;;;15.93;8.88;;;15.00;99.90;;;13.66;100.00;101419.53;2569435;30;138459;-39
2021/08/28 04:39:34;;;;;;;14.32;9.10;;;15.00;99.90;;;13.65;100.00;101411.50;2570209;30;138698;-39
2021/08/28 04:42:02;;;;;;;11.25;8.13;;;15.00;99.90;;;13.63;100.00;101414.47;2565189;30;139401;-39
2021/08/28 04:44:30;;;;;;;13.38;8.85;;;15.00;99.90;;;13.63;100.00;101406.25;2568883;30;137519;-38
2021/08/28 04:46:57;;;;;;;12.15;8.43;;;15.00;99.90;;;13.61;100.00;101405.63;2568442;30;139554;-38
2021/08/28 04:49:26;;;;;;;14.70;8.43;;;15.00;99.90;;;13.62;100.00;101410.06;2569054;30;137829;-38
2021/08/28 04:52:14;;;;;;;14.77;8.18;;;15.00;99.90;;;13.60;100.00;101414.06;2566729;30;137917;-39
2021/08/28 04:54:42;;;;;;;14.35;8.55;;;15.00;99.90;;;13.63;100.00;101417.22;2567703;30;139031;-39
2021/08/28 04:57:09;;;;;;;14.85;8.57;;;15.00;99.90;;;13.62;100.00;101403.72;2568772;30;136683;-38
2021/08/28 04:59:37;;;;;;;12.57;7.90;;;15.00;99.90;;;13.65;100.00;101398.66;2565234;30;137483;-38
2021/08/28 05:02:13;;;;;;;12.27;7.40;;;15.00;99.90;;;13.65;100.00;101395.91;2566183;30;137084;-38
2021/08/28 05:04:49;;;;;;;12.52;7.15;;;15.00;99.90;;;13.68;100.00;101399.28;2567732;30;137361;-41
2021/08/28 05:07:17;;;;;;;12.27;7.60;;;15.00;99.90;;;13.67;100.00;101398.44;2569251;30;140796;-38
2021/08/28 05:09:57;;;;;;;10.57;7.00;;;15.00;99.90;;;13.64;100.00;101401.59;2569279;30;138415;-38
2021/08/28 05:12:25;;;;;;;;;;;15.00;99.90;;;13.67;100.00;101406.66;2568996;30;139844;-39
2021/08/28 05:15:06;;;;;;;9.45;6.88;;;15.00;99.90;;;13.73;100.00;101407.66;2571895;30;139327;-38
2021/08/28 05:17:43;;;;;;;8.63;5.82;;;15.00;99.90;;;13.69;100.00;101403.69;2568369;30;139388;-38
2021/08/28 05:20:10;;;;;;;9.07;6.15;;;15.00;99.90;;;13.72;100.00;101392.28;2568766;30;137069;-39
2021/08/28 05:22:58;;;;;;;10.10;5.80;;;15.00;99.90;;;13.68;100.00;101404.75;2567179;30;137564;-39
2021/08/28 05:25:44;;;;;;;9.20;6.00;;;15.00;99.90;;;13.72;100.00;101408.72;2568834;30;136926;-39
2021/08/28 05:28:12;;;;;;;;;;;15.00;99.90;;;13.77;100.00;101406.16;2566175;30;138353;-39
2021/08/28 05:30:41;;;;;;;11.23;7.60;;;15.00;99.90;;;13.79;100.00;101404.03;2569599;30;137162;-38
2021/08/28 05:33:10;;;;;;;12.50;8.73;;;15.10;99.90;;;13.80;100.00;101409.31;2569574;30;140584;-39
2021/08/28 05:35:38;;;;;;;14.38;10.07;;;15.10;99.90;;;13.81;100.00;101411.00;2568990;30;138946;-39
2021/08/28 05:38:27;;;;;;;13.32;8.88;;;15.10;99.90;;;13.91;100.00;101418.75;2566722;30;138075;-38
2021/08/28 05:40:54;;;;;;;17.17;9.85;;;15.20;99.90;;;13.89;100.00;101426.38;2570017;30;140376;-39
2021/08/28 05:43:22;;;;;;;14.35;8.75;;;15.20;99.90;;;13.88;100.00;101421.09;2569110;30;140234;-38
2021/08/28 05:45:58;;;;;;;14.85;9.43;;;15.20;99.90;;;13.87;100.00;101419.41;2569111;30;137043;-39
2021/08/28 05:48:27;;;;;;;13.35;8.98;;;15.20;99.90;;;13.83;100.00;101427.25;2571094;30;139818;-39
2021/08/28 05:50:55;;;;;;;12.98;9.05;;;15.20;99.90;;;13.84;100.00;101417.97;2569979;30;137834;-39
2021/08/28 05:53:29;;;;;;;12.07;8.18;;;15.20;99.90;;;13.93;100.00;101426.78;2569398;30;140063;-39
2021/08/28 05:55:57;;;;;;;;;;;15.20;99.90;;;13.94;100.00;101440.25;2569453;30;138500;-39
2021/08/28 05:58:24;;;;;;;16.25;8.40;;;15.20;99.90;;;13.94;100.00;101437.50;2570129;30;139720;-39
2021/08/28 06:00:52;;;;;;;18.05;10.00;;;15.20;99.90;;;13.98;100.00;101432.44;2568076;30;140052;-39
2021/08/28 06:03:19;;;;;;;;;;;15.30;99.90;;;14.00;100.00;101434.94;2570093;30;139343;-39
2021/08/28 06:05:53;;;;;;;15.07;8.98;;;15.30;99.90;;;13.99;100.00;101436.00;2569157;30;138011;-39
2021/08/28 06:08:47;;;;;;;15.73;9.60;;;15.30;99.90;;;13.96;100.00;101431.81;2566555;30;137525;-38
2021/08/28 06:11:37;;;;;;;11.73;8.68;;;15.30;99.90;;;14.01;100.00;101429.25;2568309;30;136963;-39
2021/08/28 06:14:29;;;;;;;14.95;8.57;;;15.30;99.90;;;13.98;100.00;101417.88;2568587;30;139779;-39
2021/08/28 06:16:57;;;;;;;11.77;8.15;;;15.30;99.90;;;14.01;100.00;101434.75;2569963;30;138433;-39
2021/08/28 06:19:27;;;;;;;15.52;10.40;;;15.30;99.90;;;14.09;100.00;101434.47;2568992;30;138758;-39
2021/08/28 06:21:56;;;;;;;15.65;9.70;;;15.30;99.90;;;14.10;100.00;101427.09;2566541;30;139054;-39
2021/08/28 06:24:23;;;;;;;14.80;10.10;;;15.40;99.90;;;14.12;100.00;101429.59;2577404;30;141101;-40
2021/08/28 06:27:05;;;;;;;13.90;9.68;;;15.40;99.90;;;14.17;100.00;101427.88;2568477;30;137371;-40
2021/08/28 06:29:32;;;;;;;;;;;15.40;99.90;;;14.13;100.00;101426.63;2568297;30;138371;-40
2021/08/28 06:32:01;;;;;;;15.38;9.45;;;15.40;99.90;;;14.10;100.00;101416.94;2566164;30;138476;-40
2021/08/28 06:34:29;;;;;;;13.60;8.93;;;15.50;99.90;;;14.17;100.00;101444.34;2569095;30;139292;-41
2021/08/28 06:36:56;;;;;;;14.48;9.57;;;15.50;99.90;;;14.18;100.00;101435.03;2568401;30;137034;-40
2021/08/28 06:39:26;;;;;;;14.73;8.93;;;15.50;99.90;;;14.19;100.00;101439.47;2567965;30;138606;-41
2021/08/28 06:42:13;;;;;;;15.27;9.50;;;15.50;99.90;;;14.26;100.00;101430.34;2566093;30;137291;-41
2021/08/28 06:44:59;;;;;;;15.55;8.55;;;15.50;99.90;;;14.21;100.00;101434.59;2568473;30;136939;-40
2021/08/28 06:47:58;;;;;;;;;;;15.50;99.90;;;14.29;100.00;101432.63;2567353;30;137032;-40
2021/08/28 06:50:45;;;;;;;11.25;7.80;;;15.50;99.90;;;14.32;100.00;101432.19;2568117;30;136910;-43
2021/08/28 06:53:32;;;;;;;13.63;8.27;;;15.60;99.90;;;14.36;100.00;101433.44;2568320;30;136861;-41
2021/08/28 06:56:18;;;;;;;12.02;7.28;;;15.60;99.90;;;14.37;100.00;101430.47;2567994;30;137031;-41
2021/08/28 06:59:09;;;;;;;12.35;7.63;;;15.70;99.90;;;14.34;100.00;101436.41;2566074;30;137086;-40
2021/08/28 07:01:49;;;;;;;12.93;7.50;;;15.70;99.90;;;14.35;100.00;101435.34;2567521;30;138987;-42
2021/08/28 07:04:35;;;;;;;10.05;7.28;;;15.70;99.90;;;14.37;100.00;101435.94;2566954;30;140174;-41
2021/08/28 07:07:15;;;;;;;13.82;8.32;;;15.70;99.90;;;14.46;100.00;101442.00;2568558;30;137161;-42
2021/08/28 07:09:47;;;;;;;14.02;8.57;;;15.70;99.90;;;14.49;100.00;101436.06;2567717;30;138495;-43
2021/08/28 07:12:15;;;;;;;12.50;8.25;;;15.70;99.90;;;14.59;100.00;101440.22;2569282;30;140484;-40
2021/08/28 07:14:44;;;;;;;15.43;8.93;;;15.80;99.90;;;14.53;100.00;101440.03;2567290;30;139281;-40
2021/08/28 07:17:32;;;;;;;13.18;8.18;;;15.80;99.90;;;14.57;100.00;101432.22;2568795;30;137011;-40
2021/08/28 07:20:03;;;;;;;11.90;8.07;;;15.80;99.90;;;14.51;100.00;101439.44;2567431;30;139475;-40
2021/08/28 07:22:31;;;;;;;10.63;7.53;;;15.80;99.90;;;14.51;100.00;101433.13;2566523;30;139009;-40
2021/08/28 07:24:59;;;;;;;13.65;8.02;;;15.80;99.90;;;14.57;100.00;101431.34;2567780;30;138354;-41
2021/08/28 07:27:30;;;;;;;11.55;7.68;;;15.80;99.90;;;14.58;100.00;101439.38;2567903;30;140122;-42
2021/08/28 07:30:30;;;;;;;13.80;8.35;;;15.90;99.90;;;14.63;100.00;101430.47;2566524;30;136981;-40
2021/08/28 07:32:57;;;;;;;13.88;8.95;;;15.90;99.90;;;14.73;100.00;101436.31;2566927;30;139988;-41
2021/08/28 07:35:26;;;;;;;13.38;8.18;;;15.90;99.90;;;14.77;100.00;101433.97;2567194;30;137789;-41
2021/08/28 07:37:55;;;;;;;11.68;7.97;;;16.00;99.90;;;14.88;100.00;101438.72;2566626;30;138524;-40
2021/08/28 07:40:25;;;;;;;13.77;9.18;;;16.00;99.90;;;14.98;100.00;101443.69;2568065;30;137501;-41
2021/08/28 07:42:55;;;;;;;15.73;9.05;;;16.10;99.90;;;14.96;100.00;101426.59;2566043;30;139327;-41
2021/08/28 07:45:26;;;;;;;14.15;10.20;;;16.20;99.90;;;15.00;100.00;101438.81;2567234;30;139014;-40
2021/08/28 07:48:04;;;;;;;14.70;10.13;;;16.20;99.90;;;15.04;98.92;101436.44;2567202;30;137998;-41
2021/08/28 07:50:33;;;;;;;15.65;10.88;;;16.20;99.90;;;15.29;100.00;101430.88;2565829;30;138982;-40
2021/08/28 07:53:02;;;;;;;16.58;11.38;;;16.40;99.90;;;15.55;100.00;101436.28;2566989;30;140514;-42
2021/08/28 07:55:34;;;;;;;18.77;11.25;;;16.60;99.90;;;15.68;98.72;101439.72;2566730;30;137728;-40
2021/08/28 07:58:02;;;;;;;;;;;16.70;99.90;;;15.87;98.07;101433.31;2567058;30;138850;-41
2021/08/28 08:00:30;;;;;;;17.77;11.25;;;16.90;99.90;;;16.02;98.27;101436.50;2569067;30;137849;-40
2021/08/28 08:02:58;;;;;;;18.75;12.02;;;17.10;99.90;;;16.13;97.88;101440.38;2564824;30;139351;-41
2021/08/28 08:05:51;;;;;;;23.75;11.43;;;17.20;99.90;;;16.03;94.49;101443.69;2568477;30;136932;-41
2021/08/28 08:08:51;;;;;;;17.92;11.13;;;17.20;99.90;;;16.05;96.04;101443.47;2566295;30;137055;-41
2021/08/28 08:11:37;;;;;;;19.80;10.45;;;17.20;99.90;;;16.04;96.26;101439.03;2567533;30;136808;-40
2021/08/28 08:14:36;;;;;;;22.65;10.80;;;17.20;99.90;;;16.00;97.51;101454.34;2567477;30;137360;-41
2021/08/28 08:17:23;;;;;;;18.10;9.90;;;17.20;99.90;;;16.01;97.66;101453.28;2567332;30;136691;-41
2021/08/28 08:20:10;;;;;;;18.33;9.95;;;17.20;99.90;;;15.88;95.41;101452.38;2568888;30;137286;-41
2021/08/28 08:22:56;;;;;;;16.05;9.70;;;17.10;99.90;;;15.86;94.63;101453.66;2568717;30;136967;-41
2021/08/28 08:25:44;;;;;;;14.57;9.05;;;17.10;99.90;;;15.82;93.50;101465.13;2567672;30;137736;-41
2021/08/28 08:28:21;;;;;;;14.98;9.32;;;17.00;99.90;;;15.99;96.23;101455.41;2568451;30;136781;-41
2021/08/28 08:31:23;;;;;;;13.23;8.63;;;17.10;99.90;;;16.00;96.80;101451.59;2567737;30;137079;-42
2021/08/28 08:33:54;;;;;;;17.88;8.32;;;17.10;99.90;;;15.93;96.09;101462.69;2567358;30;138717;-41
2021/08/28 08:36:21;;;;;;;12.10;8.05;;;17.10;99.90;;;15.91;97.22;101462.94;2567327;30;140586;-41
2021/08/28 08:38:50;;;;;;;14.00;7.93;;;17.10;99.90;;;15.96;97.06;101474.06;2567972;30;139152;-42
2021/08/28 08:41:18;;;;;;;;;;;17.10;99.90;;;15.75;92.26;101469.84;2568245;30;139671;-42
2021/08/28 08:43:54;;;;;;;14.75;7.72;;;17.00;99.90;;;15.81;92.53;101462.59;2566603;30;138446;-41
2021/08/28 08:46:23;;;;;;;11.77;7.95;;;17.00;99.90;;;15.99;94.00;101472.75;2566754;30;137204;-41
2021/08/28 08:48:54;;;;;;;14.25;9.15;;;17.10;99.90;;;16.06;92.07;101469.91;2567959;30;138710;-42
2021/08/28 08:51:23;;;;;;;13.32;9.13;;;17.20;99.90;;;16.28;92.59;101467.47;2567155;30;139065;-40
2021/08/28 08:53:51;;;;;;;14.23;8.60;;;17.30;99.90;;;16.50;91.60;101478.78;2563878;30;137816;-40
2021/08/28 08:56:20;;;;;;;15.10;9.10;;;17.50;99.90;;;16.74;92.57;101476.06;2566196;30;139748;-41
2021/08/28 08:58:52;;;;;;;12.32;8.07;;;17.70;99.90;;;16.78;89.67;101476.41;2567043;30;138719;-40
2021/08/28 09:01:20;;;;;;;12.30;7.68;;;17.80;99.90;;;16.99;92.55;101471.41;2567461;30;137902;-41
2021/08/28 09:04:07;;;;;;;12.25;7.95;;;17.90;99.90;;;17.05;88.91;101463.03;2568285;30;136866;-41
2021/08/28 09:06:35;;;;;;;13.15;8.02;;;18.10;99.90;;;17.02;87.37;101463.53;2565204;30;137841;-41
2021/08/28 09:09:02;;;;;;;12.35;8.10;;;18.10;99.90;;;17.08;86.36;101464.47;2567706;30;137246;-41
2021/08/28 09:11:30;;;;;;;;;;;18.20;99.90;;;17.33;87.94;101466.09;2568674;30;137922;-40
2021/08/28 09:14:21;;;;;;;12.05;7.47;;;18.30;99.90;;;17.47;85.36;101472.19;2568966;30;136929;-41
2021/08/28 09:16:50;;;;;;;8.32;6.10;;;18.50;99.90;;;17.55;84.15;101466.31;2566847;30;137658;-41
2021/08/28 09:19:36;;;;;;;9.35;5.07;;;18.60;99.90;;;17.53;84.44;101471.25;2565642;30;138387;-41
2021/08/28 09:22:27;;;;;;;7.40;4.57;;;18.60;99.90;;;17.27;83.27;101469.84;2567786;30;138082;-41
2021/08/28 09:25:07;;;;;;;7.35;4.40;;;18.50;99.90;;;17.08;83.77;101475.47;2568756;30;136985;-41
2021/08/28 09:27:43;;;;;;;7.35;4.10;;;18.30;99.90;;;16.87;83.50;101476.91;2568621;30;138144;-41
2021/08/28 09:30:38;;;;;;;7.47;3.83;;;18.10;99.90;;;16.68;85.59;101472.34;2568141;30;137173;-41
2021/08/28 09:33:08;;;;;;;5.85;3.97;;;17.90;99.90;;;16.62;88.67;101473.28;2568710;30;137833;-41
2021/08/28 09:35:47;;;;;;;8.95;4.68;;;17.80;99.90;;;16.33;86.86;101478.63;2566762;30;137700;-41
2021/08/28 09:38:20;;;;;;;9.73;5.22;;;17.70;99.90;;;16.34;90.63;101482.22;2566075;30;137126;-41
2021/08/28 09:40:57;;;;;;;9.50;5.55;;;17.60;99.90;;;16.31;90.58;101483.53;2567400;30;137486;-41
2021/08/28 09:43:26;;;;;;;10.45;6.20;;;17.60;99.90;;;16.34;90.78;101493.22;2565675;30;138378;-40
2021/08/28 09:45:55;;;;;;;9.25;5.82;;;17.60;99.90;;;16.21;91.08;101486.84;2568706;30;136807;-40
2021/08/28 09:48:29;;;;;;;9.40;5.35;;;17.50;99.90;;;16.05;92.04;101490.25;2568521;30;138270;-42
2021/08/28 09:50:59;;;;;;;11.57;5.45;;;17.30;99.90;;;15.90;92.94;101494.25;2567183;30;137341;-40
2021/08/28 09:53:41;;;;;;;7.80;4.68;;;17.20;99.90;;;15.77;94.45;101500.72;2565747;30;137269;-40
2021/08/28 09:56:09;;;;;;;7.65;5.30;;;17.10;99.90;;;15.64;95.70;101490.72;2568193;30;136945;-40
2021/08/28 09:58:40;;;;;;;7.82;5.15;;;17.10;99.90;;;15.65;96.35;101486.94;2568121;30;136744;-40
2021/08/28 10:01:08;;;;;;;8.93;5.28;;;16.90;99.90;;;15.64;97.01;101487.97;2568545;30;136962;-40
2021/08/28 10:03:36;;;;;;;6.95;4.78;;;16.90;99.90;;;15.49;97.13;101495.78;2568298;30;139251;-40
2021/08/28 10:06:04;;;;;;;7.28;4.55;;;16.90;99.90;;;15.43;96.79;101499.47;2566336;30;137674;-41
2021/08/28 10:08:33;;;;;;;6.93;4.07;;;16.80;99.90;;;15.28;97.96;101497.09;2567544;30;138256;-42
2021/08/28 10:11:01;;;;;;;5.93;3.25;;;16.70;99.90;;;15.16;97.86;101495.06;2566984;30;136795;-40
2021/08/28 10:13:34;;;;;;;5.30;3.53;;;16.60;99.90;;;15.17;97.76;101495.94;2567359;30;139064;-40
2021/08/28 10:16:03;;;;;;;3.97;2.72;;;16.50;99.90;;;15.11;98.40;101494.91;2567365;30;137370;-40
2021/08/28 10:18:34;;;;;;;5.18;3.03;;;16.40;99.90;;;15.12;98.92;101484.75;2567213;30;138244;-41
2021/08/28 10:21:03;;;;;;;4.72;2.72;;;16.40;99.90;;;15.16;98.84;101499.75;2566606;30;138256;-41
2021/08/28 10:23:37;;;;;;;3.67;2.28;;;16.40;99.90;;;15.16;99.44;101499.75;2569151;30;137274;-40
2021/08/28 10:26:10;;;;;;;5.00;3.05;;;16.40;99.90;;;15.17;99.89;101499.50;2568523;30;139213;-41
2021/08/28 10:28:40;;;;;;;4.60;2.90;;;16.50;99.90;;;15.14;100.00;101497.22;2567792;30;138415;-40
2021/08/28 10:31:10;;;;;;;5.78;3.17;;;16.40;99.90;;;15.12;99.90;101504.00;2566900;30;137037;-42
2021/08/28 10:33:39;;;;;;;4.90;2.80;;;16.50;99.90;;;15.14;100.00;101505.47;2568960;30;138149;-38
2021/08/28 10:36:09;;;;;;;4.90;3.10;;;16.40;99.90;;;15.23;100.00;101493.09;2567472;30;137449;-41
2021/08/28 10:38:41;;;;;;;5.93;4.13;;;16.50;99.90;;;15.38;100.00;101489.16;2567817;30;137996;-40
2021/08/28 10:41:11;;;;;;;7.85;4.32;;;16.60;99.90;;;15.37;99.76;101495.72;2568050;30;137392;-41
2021/08/28 10:43:40;;;;;;;9.00;4.82;;;16.60;99.90;;;15.57;100.00;101491.91;2568692;30;138376;-39
2021/08/28 10:46:28;;;;;;;8.05;5.20;;;16.70;99.90;;;15.64;100.00;101487.97;2567424;30;140250;-40
2021/08/28 10:49:03;;;;;;;9.20;5.40;;;16.80;99.90;;;15.68;99.72;101494.72;2568760;30;137701;-41
2021/08/28 10:51:39;;;;;;;6.97;4.90;;;16.80;99.90;;;15.74;97.93;101503.94;2567346;30;138152;-40
2021/08/28 10:54:12;;;;;;;8.02;5.60;;;16.90;99.90;;;15.75;97.89;101491.88;2564939;30;137431;-41